sensor_id;sensor_type;location;lat;lon;timestamp;pressure;altitude;pressure_sealevel;temperature;humidity
68197;BME280;55019;49.382;11.358;2023-03-20T00:00:45;96755.13;;;7.85;100.00
68197;BME280;55019;49.382;11.358;2023-03-20T00:03:12;96755.19;;;8.03;100.00
68197;BME280;55019;49.382;11.358;2023-03-20T00:05:39;96755.28;;;8.11;100.00
68197;BME280;55019;49.382;11.358;2023-03-20T00:08:05;96758.22;;;8.25;100.00
68197;BME280;55019;49.382;11.358;2023-03-20T00:10:39;96772.91;;;8.33;100.00
68197;BME280;55019;49.382;11.358;2023-03-20T00:13:06;96764.72;;;8.20;100.00
68197;BME280;55019;49.382;11.358;2023-03-20T00:15:37;96763.13;;;8.19;100.00
68197;BME280;55019;49.382;11.358;2023-03-20T00:18:12;96761.75;;;8.42;100.00
68197;BME280;55019;49.382;11.358;2023-03-20T00:20:39;96765.34;;;8.31;100.00
68197;BME280;55019;49.382;11.358;2023-03-20T00:23:04;96771.38;;;8.13;100.00
68197;BME280;55019;49.382;11.358;2023-03-20T00:25:30;96769.47;;;8.15;100.00
68197;BME280;55019;49.382;11.358;2023-03-20T00:27:57;96764.59;;;8.21;100.00
68197;BME280;55019;49.382;11.358;2023-03-20T00:30:26;96771.50;;;8.21;100.00
68197;BME280;55019;49.382;11.358;2023-03-20T00:32:54;96774.06;;;8.21;100.00
68197;BME280;55019;49.382;11.358;2023-03-20T00:35:27;96772.81;;;7.98;100.00
68197;BME280;55019;49.382;11.358;2023-03-20T00:37:55;96768.41;;;8.17;100.00
68197;BME280;55019;49.382;11.358;2023-03-20T00:40:24;96772.81;;;7.98;100.00
68197;BME280;55019;49.382;11.358;2023-03-20T00:42:57;96770.91;;;8.00;100.00
68197;BME280;55019;49.382;11.358;2023-03-20T00:45:23;96767.97;;;7.95;100.00
68197;BME280;55019;49.382;11.358;2023-03-20T00:47:50;96768.19;;;8.01;100.00
68197;BME280;55019;49.382;11.358;2023-03-20T00:50:21;96760.28;;;7.76;100.00
68197;BME280;55019;49.382;11.358;2023-03-20T00:52:49;96766.88;;;7.88;100.00
68197;BME280;55019;49.382;11.358;2023-03-20T00:55:17;96756.50;;;8.07;99.81
68197;BME280;55019;49.382;11.358;2023-03-20T00:57:47;96756.03;;;7.94;99.47
68197;BME280;55019;49.382;11.358;2023-03-20T01:02:43;96757.16;;;7.82;100.00
68197;BME280;55019;49.382;11.358;2023-03-20T01:05:10;96754.50;;;7.74;100.00
68197;BME280;55019;49.382;11.358;2023-03-20T01:07:37;96753.44;;;7.67;100.00
68197;BME280;55019;49.382;11.358;2023-03-20T01:10:04;96755.72;;;7.70;100.00
68197;BME280;55019;49.382;11.358;2023-03-20T01:12:30;96762.38;;;7.72;100.00
68197;BME280;55019;49.382;11.358;2023-03-20T01:14:57;96750.47;;;7.62;100.00
68197;BME280;55019;49.382;11.358;2023-03-20T01:17:25;96749.44;;;7.45;100.00
68197;BME280;55019;49.382;11.358;2023-03-20T01:19:51;96758.88;;;7.54;100.00
68197;BME280;55019;49.382;11.358;2023-03-20T01:22:17;96754.06;;;7.42;100.00
68197;BME280;55019;49.382;11.358;2023-03-20T01:24:43;96752.44;;;7.41;100.00
68197;BME280;55019;49.382;11.358;2023-03-20T01:27:18;96754.59;;;7.36;100.00
68197;BME280;55019;49.382;11.358;2023-03-20T01:29:45;96763.53;;;7.32;100.00
68197;BME280;55019;49.382;11.358;2023-03-20T01:32:14;96759.44;;;7.48;100.00
68197;BME280;55019;49.382;11.358;2023-03-20T01:34:44;96751.50;;;7.42;100.00
68197;BME280;55019;49.382;11.358;2023-03-20T01:37:13;96752.69;;;7.38;100.00
68197;BME280;55019;49.382;11.358;2023-03-20T01:39:39;96754.03;;;7.51;100.00
68197;BME280;55019;49.382;11.358;2023-03-20T01:42:06;96750.69;;;7.41;100.00
68197;BME280;55019;49.382;11.358;2023-03-20T01:44:35;96757.69;;;7.49;100.00
68197;BME280;55019;49.382;11.358;2023-03-20T01:47:02;96757.03;;;7.47;100.00
68197;BME280;55019;49.382;11.358;2023-03-20T01:52:37;96764.94;;;7.17;100.00
68197;BME280;55019;49.382;11.358;2023-03-20T01:55:03;96768.16;;;7.19;100.00
68197;BME280;55019;49.382;11.358;2023-03-20T01:57:29;96764.38;;;7.23;100.00
68197;BME280;55019;49.382;11.358;2023-03-20T02:00:06;96769.91;;;7.28;100.00
68197;BME280;55019;49.382;11.358;2023-03-20T02:02:44;96766.53;;;7.27;100.00
68197;BME280;55019;49.382;11.358;2023-03-20T02:05:35;96771.41;;;7.40;100.00
68197;BME280;55019;49.382;11.358;2023-03-20T02:08:31;96772.72;;;7.44;100.00
68197;BME280;55019;49.382;11.358;2023-03-20T02:11:03;96772.72;;;7.44;100.00
68197;BME280;55019;49.382;11.358;2023-03-20T02:13:30;96774.66;;;7.32;100.00
68197;BME280;55019;49.382;11.358;2023-03-20T02:16:12;96777.88;;;7.34;100.00
68197;BME280;55019;49.382;11.358;2023-03-20T02:19:14;96771.13;;;7.43;100.00
68197;BME280;55019;49.382;11.358;2023-03-20T02:44:43;96777.59;;;7.47;100.00
68197;BME280;55019;49.382;11.358;2023-03-20T02:50:40;96785.69;;;7.52;100.00
68197;BME280;55019;49.382;11.358;2023-03-20T02:53:18;96782.00;;;7.64;100.00
68197;BME280;55019;49.382;11.358;2023-03-20T02:58:27;96786.25;;;7.46;100.00
68197;BME280;55019;49.382;11.358;2023-03-20T03:01:29;96784.09;;;7.41;100.00
68197;BME280;55019;49.382;11.358;2023-03-20T03:04:02;96789.22;;;7.41;100.00
68197;BME280;55019;49.382;11.358;2023-03-20T03:06:34;96801.41;;;7.49;100.00
68197;BME280;55019;49.382;11.358;2023-03-20T03:11:48;96807.72;;;7.64;100.00
68197;BME280;55019;49.382;11.358;2023-03-20T03:14:36;96804.19;;;7.65;100.00
68197;BME280;55019;49.382;11.358;2023-03-20T03:17:10;96806.38;;;7.60;100.00
68197;BME280;55019;49.382;11.358;2023-03-20T03:19:40;96805.81;;;7.66;100.00
68197;BME280;55019;49.382;11.358;2023-03-20T03:22:07;96790.00;;;7.61;100.00
68197;BME280;55019;49.382;11.358;2023-03-20T03:24:42;96802.97;;;7.69;100.00
68197;BME280;55019;49.382;11.358;2023-03-20T03:27:25;96792.41;;;7.62;100.00
68197;BME280;55019;49.382;11.358;2023-03-20T03:29:58;96795.06;;;7.80;100.00
68197;BME280;55019;49.382;11.358;2023-03-20T03:32:29;96796.13;;;7.87;100.00
68197;BME280;55019;49.382;11.358;2023-03-20T03:34:57;96801.44;;;7.85;100.00
68197;BME280;55019;49.382;11.358;2023-03-20T03:37:46;96810.00;;;7.76;100.00
68197;BME280;55019;49.382;11.358;2023-03-20T03:43:06;96808.88;;;7.79;100.00
68197;BME280;55019;49.382;11.358;2023-03-20T03:45:38;96813.13;;;7.70;100.00
68197;BME280;55019;49.382;11.358;2023-03-20T03:48:09;96802.28;;;7.67;100.00
68197;BME280;55019;49.382;11.358;2023-03-20T03:50:52;96808.19;;;7.31;100.00
68197;BME280;55019;49.382;11.358;2023-03-20T03:53:26;96804.81;;;7.40;100.00
68197;BME280;55019;49.382;11.358;2023-03-20T03:56:08;96805.28;;;7.62;100.00
68197;BME280;55019;49.382;11.358;2023-03-20T03:58:43;96800.66;;;7.75;100.00
68197;BME280;55019;49.382;11.358;2023-03-20T04:01:11;96803.50;;;7.72;100.00
68197;BME280;55019;49.382;11.358;2023-03-20T04:03:44;96805.94;;;7.74;100.00
68197;BME280;55019;49.382;11.358;2023-03-20T04:06:11;96806.59;;;7.76;100.00
68197;BME280;55019;49.382;11.358;2023-03-20T04:08:39;96816.75;;;7.77;100.00
68197;BME280;55019;49.382;11.358;2023-03-20T04:11:07;96822.19;;;7.65;100.00
68197;BME280;55019;49.382;11.358;2023-03-20T04:13:34;96816.66;;;7.60;100.00
68197;BME280;55019;49.382;11.358;2023-03-20T04:16:00;96814.38;;;7.38;100.00
68197;BME280;55019;49.382;11.358;2023-03-20T04:18:28;96823.31;;;7.53;100.00
68197;BME280;55019;49.382;11.358;2023-03-20T04:20:53;96814.47;;;7.65;100.00
68197;BME280;55019;49.382;11.358;2023-03-20T04:23:20;96822.59;;;7.70;100.00
68197;BME280;55019;49.382;11.358;2023-03-20T04:25:46;96828.56;;;7.61;100.00
68197;BME280;55019;49.382;11.358;2023-03-20T04:28:12;96821.97;;;7.49;100.00
68197;BME280;55019;49.382;11.358;2023-03-20T04:30:57;96815.34;;;7.46;100.00
68197;BME280;55019;49.382;11.358;2023-03-20T04:33:36;96818.56;;;7.48;100.00
68197;BME280;55019;49.382;11.358;2023-03-20T04:36:12;96817.38;;;7.43;100.00
68197;BME280;55019;49.382;11.358;2023-03-20T04:38:39;96818.34;;;7.42;100.00
68197;BME280;55019;49.382;11.358;2023-03-20T04:41:05;96824.66;;;7.57;100.00
68197;BME280;55019;49.382;11.358;2023-03-20T04:43:31;96828.88;;;7.39;100.00
68197;BME280;55019;49.382;11.358;2023-03-20T04:45:58;96825.38;;;7.30;100.00
68197;BME280;55019;49.382;11.358;2023-03-20T04:48:24;96823.22;;;7.16;100.00
68197;BME280;55019;49.382;11.358;2023-03-20T04:50:50;96819.03;;;7.06;100.00
68197;BME280;55019;49.382;11.358;2023-03-20T04:53:19;96815.25;;;7.10;100.00
68197;BME280;55019;49.382;11.358;2023-03-20T04:55:48;96821.06;;;7.12;100.00
68197;BME280;55019;49.382;11.358;2023-03-20T04:58:16;96818.38;;;7.04;100.00
68197;BME280;55019;49.382;11.358;2023-03-20T05:00:42;96831.22;;;7.04;100.00
68197;BME280;55019;49.382;11.358;2023-03-20T05:03:08;96838.09;;;6.94;100.00
68197;BME280;55019;49.382;11.358;2023-03-20T05:05:34;96836.63;;;7.01;100.00
68197;BME280;55019;49.382;11.358;2023-03-20T05:08:04;96828.22;;;6.99;100.00
68197;BME280;55019;49.382;11.358;2023-03-20T05:10:33;96838.78;;;7.15;100.00
68197;BME280;55019;49.382;11.358;2023-03-20T05:13:26;96841.47;;;7.23;100.00
68197;BME280;55019;49.382;11.358;2023-03-20T05:15:59;96836.09;;;7.16;100.00
68197;BME280;55019;49.382;11.358;2023-03-20T05:18:46;96844.44;;;7.28;100.00
68197;BME280;55019;49.382;11.358;2023-03-20T05:21:31;96834.19;;;7.18;100.00
68197;BME280;55019;49.382;11.358;2023-03-20T05:24:16;96844.84;;;7.33;100.00
68197;BME280;55019;49.382;11.358;2023-03-20T05:26:56;96855.28;;;7.31;100.00
68197;BME280;55019;49.382;11.358;2023-03-20T05:29:39;96853.22;;;7.35;100.00
68197;BME280;55019;49.382;11.358;2023-03-20T05:32:25;96853.25;;;7.25;100.00
68197;BME280;55019;49.382;11.358;2023-03-20T05:35:14;96858.09;;;7.19;100.00
68197;BME280;55019;49.382;11.358;2023-03-20T05:37:57;96856.19;;;7.11;100.00
68197;BME280;55019;49.382;11.358;2023-03-20T05:40:46;96865.94;;;7.27;100.00
68197;BME280;55019;49.382;11.358;2023-03-20T05:43:31;96867.41;;;7.39;100.00
68197;BME280;55019;49.382;11.358;2023-03-20T05:46:15;96864.06;;;7.48;100.00
68197;BME280;55019;49.382;11.358;2023-03-20T05:48:57;96866.63;;;7.48;100.00
68197;BME280;55019;49.382;11.358;2023-03-20T05:51:31;96876.63;;;7.51;100.00
68197;BME280;55019;49.382;11.358;2023-03-20T05:54:35;96873.66;;;7.46;100.00
68197;BME280;55019;49.382;11.358;2023-03-20T05:57:15;96872.69;;;7.56;100.00
68197;BME280;55019;49.382;11.358;2023-03-20T06:00:05;96868.38;;;7.66;100.00
68197;BME280;55019;49.382;11.358;2023-03-20T06:02:55;96872.41;;;7.69;100.00
68197;BME280;55019;49.382;11.358;2023-03-20T06:05:43;96879.84;;;7.62;100.00
68197;BME280;55019;49.382;11.358;2023-03-20T06:08:09;96879.09;;;7.43;100.00
68197;BME280;55019;49.382;11.358;2023-03-20T06:10:35;96868.94;;;7.22;100.00
68197;BME280;55019;49.382;11.358;2023-03-20T06:13:00;96875.56;;;7.34;100.00
68197;BME280;55019;49.382;11.358;2023-03-20T06:15:27;96882.03;;;7.29;100.00
68197;BME280;55019;49.382;11.358;2023-03-20T06:18:01;96875.53;;;7.63;100.00
68197;BME280;55019;49.382;11.358;2023-03-20T06:20:26;96879.19;;;7.41;100.00
68197;BME280;55019;49.382;11.358;2023-03-20T06:22:52;96877.97;;;7.36;100.00
68197;BME280;55019;49.382;11.358;2023-03-20T06:25:19;96884.34;;;7.32;100.00
68197;BME280;55019;49.382;11.358;2023-03-20T06:27:46;96879.91;;;7.24;100.00
68197;BME280;55019;49.382;11.358;2023-03-20T06:30:13;96889.75;;;7.29;100.00
68197;BME280;55019;49.382;11.358;2023-03-20T06:32:39;96898.97;;;7.41;100.00
68197;BME280;55019;49.382;11.358;2023-03-20T06:35:08;96901.94;;;7.27;100.00
68197;BME280;55019;49.382;11.358;2023-03-20T06:37:34;96906.13;;;7.18;100.00
68197;BME280;55019;49.382;11.358;2023-03-20T06:40:07;96911.53;;;7.25;100.00
68197;BME280;55019;49.382;11.358;2023-03-20T06:42:35;96908.03;;;7.16;100.00
68197;BME280;55019;49.382;11.358;2023-03-20T06:45:01;96913.16;;;7.26;100.00
68197;BME280;55019;49.382;11.358;2023-03-20T06:47:46;96918.97;;;7.37;100.00
68197;BME280;55019;49.382;11.358;2023-03-20T06:50:12;96915.19;;;7.60;100.00
68197;BME280;55019;49.382;11.358;2023-03-20T06:52:38;96920.63;;;7.48;100.00
68197;BME280;55019;49.382;11.358;2023-03-20T06:55:27;96922.34;;;7.38;100.00
68197;BME280;55019;49.382;11.358;2023-03-20T06:57:53;96913.03;;;7.56;100.00
68197;BME280;55019;49.382;11.358;2023-03-20T07:00:19;96912.31;;;7.63;100.00
68197;BME280;55019;49.382;11.358;2023-03-20T07:02:46;96918.03;;;7.29;100.00
68197;BME280;55019;49.382;11.358;2023-03-20T07:05:15;96921.28;;;7.50;100.00
68197;BME280;55019;49.382;11.358;2023-03-20T07:07:41;96918.16;;;7.46;100.00
68197;BME280;55019;49.382;11.358;2023-03-20T07:10:07;96919.38;;;7.42;100.00
68197;BME280;55019;49.382;11.358;2023-03-20T07:12:34;96928.31;;;7.48;100.00
68197;BME280;55019;49.382;11.358;2023-03-20T07:15:00;96921.94;;;7.33;100.00
68197;BME280;55019;49.382;11.358;2023-03-20T07:17:27;96921.81;;;7.34;100.00
68197;BME280;55019;49.382;11.358;2023-03-20T07:19:52;96923.59;;;7.53;100.00
68197;BME280;55019;49.382;11.358;2023-03-20T07:22:26;96921.56;;;7.47;100.00
68197;BME280;55019;49.382;11.358;2023-03-20T07:25:02;96919.53;;;7.41;100.00
68197;BME280;55019;49.382;11.358;2023-03-20T07:27:28;96928.03;;;7.60;100.00
68197;BME280;55019;49.382;11.358;2023-03-20T07:29:54;96917.72;;;7.89;100.00
68197;BME280;55019;49.382;11.358;2023-03-20T07:32:21;96923.44;;;7.64;100.00
68197;BME280;55019;49.382;11.358;2023-03-20T07:34:49;96914.50;;;7.68;100.00
68197;BME280;55019;49.382;11.358;2023-03-20T07:37:16;96925.34;;;7.71;100.00
68197;BME280;55019;49.382;11.358;2023-03-20T07:39:53;96916.53;;;7.74;100.00
68197;BME280;55019;49.382;11.358;2023-03-20T07:42:30;96920.19;;;7.62;100.00
68197;BME280;55019;49.382;11.358;2023-03-20T07:44:58;96922.84;;;7.89;100.00
68197;BME280;55019;49.382;11.358;2023-03-20T07:47:24;96926.94;;;7.82;100.00
68197;BME280;55019;49.382;11.358;2023-03-20T07:49:50;96919.25;;;7.72;100.00
68197;BME280;55019;49.382;11.358;2023-03-20T07:52:15;96927.09;;;7.71;100.00
68197;BME280;55019;49.382;11.358;2023-03-20T07:54:41;96922.72;;;7.81;100.00
68197;BME280;55019;49.382;11.358;2023-03-20T07:57:07;96925.19;;;7.92;100.00
68197;BME280;55019;49.382;11.358;2023-03-20T07:59:33;96923.91;;;8.24;100.00
68197;BME280;55019;49.382;11.358;2023-03-20T08:01:59;96922.28;;;8.23;100.00
68197;BME280;55019;49.382;11.358;2023-03-20T08:04:24;96927.19;;;7.98;100.00
68197;BME280;55019;49.382;11.358;2023-03-20T08:06:50;96937.31;;;8.09;100.00
68197;BME280;55019;49.382;11.358;2023-03-20T08:09:16;96933.97;;;7.99;100.00
68197;BME280;55019;49.382;11.358;2023-03-20T08:11:42;96928.81;;;7.99;100.00
68197;BME280;55019;49.382;11.358;2023-03-20T08:14:08;96926.47;;;8.05;100.00
68197;BME280;55019;49.382;11.358;2023-03-20T08:16:34;96933.97;;;7.99;100.00
68197;BME280;55019;49.382;11.358;2023-03-20T08:19:00;96931.38;;;8.18;100.00
68197;BME280;55019;49.382;11.358;2023-03-20T08:21:28;96933.09;;;8.27;100.00
68197;BME280;55019;49.382;11.358;2023-03-20T08:23:55;96929.19;;;8.23;100.00
68197;BME280;55019;49.382;11.358;2023-03-20T08:26:21;96925.50;;;8.16;100.00
68197;BME280;55019;49.382;11.358;2023-03-20T08:28:47;96926.63;;;8.04;100.00
68197;BME280;55019;49.382;11.358;2023-03-20T08:31:14;96927.03;;;8.09;100.00
68197;BME280;55019;49.382;11.358;2023-03-20T08:33:40;96932.72;;;8.03;100.00
68197;BME280;55019;49.382;11.358;2023-03-20T08:36:06;96929.84;;;8.25;100.00
68197;BME280;55019;49.382;11.358;2023-03-20T08:38:32;96931.31;;;8.73;100.00
68197;BME280;55019;49.382;11.358;2023-03-20T08:40:58;96931.97;;;8.92;100.00
68197;BME280;55019;49.382;11.358;2023-03-20T08:43:24;96929.59;;;9.08;96.62
68197;BME280;55019;49.382;11.358;2023-03-20T08:45:51;96922.63;;;8.91;96.47
68197;BME280;55019;49.382;11.358;2023-03-20T08:48:17;96927.00;;;8.91;96.65
68197;BME280;55019;49.382;11.358;2023-03-20T08:50:42;96921.56;;;9.11;96.59
68197;BME280;55019;49.382;11.358;2023-03-20T08:53:09;96929.09;;;9.22;96.34
68197;BME280;55019;49.382;11.358;2023-03-20T08:55:34;96931.84;;;9.21;95.73
68197;BME280;55019;49.382;11.358;2023-03-20T08:58:00;96929.03;;;9.32;95.19
68197;BME280;55019;49.382;11.358;2023-03-20T09:00:26;96927.91;;;9.34;95.38
68197;BME280;55019;49.382;11.358;2023-03-20T09:02:52;96922.34;;;9.56;92.29
68197;BME280;55019;49.382;11.358;2023-03-20T09:05:18;96933.66;;;9.28;93.25
68197;BME280;55019;49.382;11.358;2023-03-20T09:07:43;96948.25;;;9.37;93.44
68197;BME280;55019;49.382;11.358;2023-03-20T09:10:10;96944.75;;;8.94;95.09
68197;BME280;55019;49.382;11.358;2023-03-20T09:12:36;96939.16;;;8.98;94.57
68197;BME280;55019;49.382;11.358;2023-03-20T09:15:04;96943.56;;;9.06;95.04
68197;BME280;55019;49.382;11.358;2023-03-20T09:17:30;96944.13;;;9.09;94.58
68197;BME280;55019;49.382;11.358;2023-03-20T09:19:56;96942.41;;;9.00;93.84
68197;BME280;55019;49.382;11.358;2023-03-20T09:22:22;96932.75;;;9.02;94.18
68197;BME280;55019;49.382;11.358;2023-03-20T09:24:48;96933.66;;;9.28;94.33
68197;BME280;55019;49.382;11.358;2023-03-20T09:27:13;96935.28;;;9.64;92.66
68197;BME280;55019;49.382;11.358;2023-03-20T09:29:40;96952.59;;;9.89;91.80
68197;BME280;55019;49.382;11.358;2023-03-20T09:32:06;96946.69;;;9.79;90.63
68197;BME280;55019;49.382;11.358;2023-03-20T09:34:32;96947.41;;;9.89;89.40
68197;BME280;55019;49.382;11.358;2023-03-20T09:36:57;96950.84;;;10.07;89.42
68197;BME280;55019;49.382;11.358;2023-03-20T09:39:23;96947.38;;;10.24;88.87
68197;BME280;55019;49.382;11.358;2023-03-20T09:41:51;96952.16;;;10.11;88.55
68197;BME280;55019;49.382;11.358;2023-03-20T09:47:08;96953.72;;;10.04;88.86
68197;BME280;55019;49.382;11.358;2023-03-20T09:52:36;96956.41;;;10.20;89.03
68197;BME280;55019;49.382;11.358;2023-03-20T09:55:09;96954.25;;;10.15;87.62
68197;BME280;55019;49.382;11.358;2023-03-20T09:57:51;96950.97;;;10.31;87.11
68197;BME280;55019;49.382;11.358;2023-03-20T10:00:18;96947.72;;;10.03;88.02
68197;BME280;55019;49.382;11.358;2023-03-20T10:03:04;96952.09;;;10.03;87.81
68197;BME280;55019;49.382;11.358;2023-03-20T10:05:38;96953.47;;;10.15;86.41
68197;BME280;55019;49.382;11.358;2023-03-20T10:08:13;96960.19;;;10.08;87.81
68197;BME280;55019;49.382;11.358;2023-03-20T10:11:09;96956.34;;;10.12;86.24
68197;BME280;55019;49.382;11.358;2023-03-20T10:13:50;96956.22;;;9.96;87.31
68197;BME280;55019;49.382;11.358;2023-03-20T10:19:15;96957.16;;;10.38;85.25
68197;BME280;55019;49.382;11.358;2023-03-20T10:21:52;96956.53;;;10.44;84.91
68197;BME280;55019;49.382;11.358;2023-03-20T10:27:25;96947.22;;;10.84;83.36
68197;BME280;55019;49.382;11.358;2023-03-20T10:32:58;96953.75;;;10.63;81.42
68197;BME280;55019;49.382;11.358;2023-03-20T10:35:33;96952.81;;;10.72;81.51
68197;BME280;55019;49.382;11.358;2023-03-20T10:40:53;96948.25;;;10.32;82.08
68197;BME280;55019;49.382;11.358;2023-03-20T10:43:27;96940.84;;;10.63;82.88
68197;BME280;55019;49.382;11.358;2023-03-20T10:49:05;96921.91;;;10.29;81.19
68197;BME280;55019;49.382;11.358;2023-03-20T10:51:46;96937.50;;;10.45;82.00
68197;BME280;55019;49.382;11.358;2023-03-20T10:54:23;96923.38;;;10.57;82.94
68197;BME280;55019;49.382;11.358;2023-03-20T10:56:52;96933.28;;;10.44;80.88
68197;BME280;55019;49.382;11.358;2023-03-20T10:59:25;96944.06;;;10.65;81.28
68197;BME280;55019;49.382;11.358;2023-03-20T11:01:52;96932.94;;;11.06;81.08
68197;BME280;55019;49.382;11.358;2023-03-20T11:04:18;96928.63;;;11.30;78.09
68197;BME280;55019;49.382;11.358;2023-03-20T11:09:44;96931.97;;;11.07;77.51
68197;BME280;55019;49.382;11.358;2023-03-20T11:12:15;96919.06;;;11.23;78.64
68197;BME280;55019;49.382;11.358;2023-03-20T11:14:42;96924.56;;;11.36;77.19
68197;BME280;55019;49.382;11.358;2023-03-20T11:17:09;96911.41;;;11.62;78.54
68197;BME280;55019;49.382;11.358;2023-03-20T11:19:37;96909.63;;;11.87;76.05
68197;BME280;55019;49.382;11.358;2023-03-20T11:22:24;96917.22;;;11.64;75.26
68197;BME280;55019;49.382;11.358;2023-03-20T11:24:53;96924.31;;;11.54;76.94
68197;BME280;55019;49.382;11.358;2023-03-20T11:27:25;96910.34;;;11.24;77.43
68197;BME280;55019;49.382;11.358;2023-03-20T11:29:52;96914.09;;;11.53;77.29
68197;BME280;55019;49.382;11.358;2023-03-20T11:35:10;96911.50;;;12.17;76.09
68197;BME280;55019;49.382;11.358;2023-03-20T11:37:48;96902.53;;;12.43;74.25
68197;BME280;55019;49.382;11.358;2023-03-20T11:40:20;96896.56;;;12.43;72.64
68197;BME280;55019;49.382;11.358;2023-03-20T11:45:41;96889.88;;;12.48;72.79
68197;BME280;55019;49.382;11.358;2023-03-20T11:48:23;96899.31;;;12.41;72.67
68197;BME280;55019;49.382;11.358;2023-03-20T11:51:08;96895.41;;;12.45;72.14
68197;BME280;55019;49.382;11.358;2023-03-20T11:53:38;96889.59;;;12.51;71.50
68197;BME280;55019;49.382;11.358;2023-03-20T11:56:11;96874.34;;;12.87;70.62
68197;BME280;55019;49.382;11.358;2023-03-20T11:58:57;96885.78;;;12.62;70.93
68197;BME280;55019;49.382;11.358;2023-03-20T12:01:28;96887.81;;;12.82;68.68
68197;BME280;55019;49.382;11.358;2023-03-20T12:04:04;96901.84;;;13.03;69.48
68197;BME280;55019;49.382;11.358;2023-03-20T12:06:48;96888.44;;;12.92;68.81
68197;BME280;55019;49.382;11.358;2023-03-20T12:12:01;96875.63;;;11.82;71.49
68197;BME280;55019;49.382;11.358;2023-03-20T12:14:59;96889.69;;;11.87;72.74
68197;BME280;55019;49.382;11.358;2023-03-20T12:17:53;96900.06;;;12.03;73.59
68197;BME280;55019;49.382;11.358;2023-03-20T12:23:19;96882.59;;;11.57;73.08
68197;BME280;55019;49.382;11.358;2023-03-20T12:25:57;96897.16;;;11.82;73.80
68197;BME280;55019;49.382;11.358;2023-03-20T12:34:05;96886.16;;;11.64;72.16
68197;BME280;55019;49.382;11.358;2023-03-20T12:36:41;96882.59;;;11.57;74.08
68197;BME280;55019;49.382;11.358;2023-03-20T12:39:13;96884.66;;;11.46;73.52
68197;BME280;55019;49.382;11.358;2023-03-20T13:01:08;96867.53;;;11.93;70.21
68197;BME280;55019;49.382;11.358;2023-03-20T13:11:50;96868.59;;;12.77;68.22
68197;BME280;55019;49.382;11.358;2023-03-20T13:14:47;96861.59;;;12.77;68.04
68197;BME280;55019;49.382;11.358;2023-03-20T13:17:29;96846.03;;;12.39;68.59
68197;BME280;55019;49.382;11.358;2023-03-20T13:20:12;96855.28;;;12.72;67.08
68197;BME280;55019;49.382;11.358;2023-03-20T13:22:47;96852.28;;;12.60;65.94
68197;BME280;55019;49.382;11.358;2023-03-20T13:28:38;96849.22;;;11.94;69.20
68197;BME280;55019;49.382;11.358;2023-03-20T13:31:31;96851.59;;;12.20;69.37
68197;BME280;55019;49.382;11.358;2023-03-20T13:34:21;96853.47;;;11.71;68.01
68197;BME280;55019;49.382;11.358;2023-03-20T13:39:34;96861.56;;;11.60;69.95
68197;BME280;55019;49.382;11.358;2023-03-20T13:42:02;96849.44;;;11.61;70.39
68197;BME280;55019;49.382;11.358;2023-03-20T13:44:31;96851.53;;;11.73;69.75
68197;BME280;55019;49.382;11.358;2023-03-20T13:47:01;96842.97;;;11.81;70.77
68197;BME280;55019;49.382;11.358;2023-03-20T13:52:38;96846.81;;;11.45;73.05
68197;BME280;55019;49.382;11.358;2023-03-20T14:00:38;96839.88;;;11.53;74.19
68197;BME280;55019;49.382;11.358;2023-03-20T14:03:31;96831.94;;;11.39;73.00
68197;BME280;55019;49.382;11.358;2023-03-20T14:05:59;96831.63;;;11.58;72.96
68197;BME280;55019;49.382;11.358;2023-03-20T14:11:11;96837.59;;;11.11;75.19
68197;BME280;55019;49.382;11.358;2023-03-20T14:13:38;96830.94;;;10.92;76.36
68197;BME280;55019;49.382;11.358;2023-03-20T14:16:09;96829.13;;;10.93;76.71
68197;BME280;55019;49.382;11.358;2023-03-20T14:18:36;96826.00;;;10.65;77.07
68197;BME280;55019;49.382;11.358;2023-03-20T14:21:10;96827.00;;;10.72;77.48
68197;BME280;55019;49.382;11.358;2023-03-20T14:23:47;96827.69;;;10.82;76.75
68197;BME280;55019;49.382;11.358;2023-03-20T14:26:19;96824.28;;;10.82;78.40
68197;BME280;55019;49.382;11.358;2023-03-20T14:31:36;96828.53;;;11.15;76.39
68197;BME280;55019;49.382;11.358;2023-03-20T14:34:07;96824.16;;;11.15;77.29
68197;BME280;55019;49.382;11.358;2023-03-20T14:45:07;96814.63;;;11.47;75.03
68197;BME280;55019;49.382;11.358;2023-03-20T14:47:50;96814.50;;;11.57;74.25
68197;BME280;55019;49.382;11.358;2023-03-20T14:50:24;96808.84;;;11.61;71.77
68197;BME280;55019;49.382;11.358;2023-03-20T14:55:47;96815.13;;;11.67;70.88
68197;BME280;55019;49.382;11.358;2023-03-20T15:03:40;96809.47;;;11.40;71.97
68197;BME280;55019;49.382;11.358;2023-03-20T15:06:06;96820.78;;;11.23;72.19
68197;BME280;55019;49.382;11.358;2023-03-20T15:08:36;96802.66;;;11.31;72.54
68197;BME280;55019;49.382;11.358;2023-03-20T15:11:11;96811.72;;;11.43;72.18
68197;BME280;55019;49.382;11.358;2023-03-20T15:13:39;96812.41;;;11.60;72.48
68197;BME280;55019;49.382;11.358;2023-03-20T15:16:08;96799.25;;;11.54;72.12
68197;BME280;55019;49.382;11.358;2023-03-20T15:18:40;96808.19;;;11.59;71.31
68197;BME280;55019;49.382;11.358;2023-03-20T15:23:41;96802.19;;;11.43;71.84
68197;BME280;55019;49.382;11.358;2023-03-20T15:26:07;96806.41;;;11.36;72.03
68197;BME280;55019;49.382;11.358;2023-03-20T15:28:33;96801.72;;;11.24;73.18
68197;BME280;55019;49.382;11.358;2023-03-20T15:31:02;96801.72;;;11.24;73.25
68197;BME280;55019;49.382;11.358;2023-03-20T15:33:36;96795.56;;;11.01;72.70
68197;BME280;55019;49.382;11.358;2023-03-20T15:36:08;96804.09;;;10.77;73.89
68197;BME280;55019;49.382;11.358;2023-03-20T15:38:35;96806.16;;;10.66;74.67
68197;BME280;55019;49.382;11.358;2023-03-20T15:41:06;96803.44;;;10.83;74.40